Terminal Aerodrome Forecast
Issued by NWS Sioux Falls, SD

Home | Current Version | Previous Version | Text Only | Print | Product List | Glossary On
Versions: 1 2 3 4 5 6 7 8 9 10 11 12 13 14 15 16
000
FTUS43 KFSD 172134 AAB
TAFFSD
TAF AMD
KFSD 172134Z 1722/1818 33018G25KT P6SM SCT025
     FM180000 34010KT P6SM SCT025
      TEMPO 1800/1804 BKN025
     FM180400 35004KT P6SM BKN015
     FM181500 17008KT P6SM BKN025=

USA.gov is the U.S. government's official web portal to all federal, state and local government web resources and services.